KHND

Henderson Executive Airport

Airport
ICAO code
KHND
Summary
ICAO Region
NAM
ICAO Territory
Location

Las Vegas/Henderson, Nevada,

Elevation
2492 ft
Coordinates
35° 58' 38" N , 115° 8' 24" W
KCC
Airport LOS
Parallel Runway Operation
Metar
Observation
KHND 070856Z AUTO 17006KT 10SM CLR 20/02 A3013 RMK AO2 SLP197 T02000022 53004
Station
Las Vegas, Henderson Executive Airport
Date/Time
2022-10-07 08:56:00
Wind direction
170°
Wind speed
06 kts
Lowest cloud amount
n/a
Temperature
20°C
Dew point
2.2°C
Humidity
30%
Weather condition
n/a

Description

Henderson Executive Airport is a public airport located 20 km south of the central business district of Las Vegas, in Clark County, Nevada.

Climatology

Hot Desert Climate (Köppen climate classification BWh) - Hot desert climates are typically found in the subtropics where there is unbroken sunshine for the whole year due to the stable descending air and high pressure, little or no precipitation. Maximum temperatures of 40°C to 45°C are not uncommon, particularly during the warmer months of the year. During colder periods of the year, night-time temperatures can drop to freezing or below due to the exceptional radiation loss under the clear skies. However, very rarely do temperatures drop far below freezing.

Very little rainfall but thunderstorms can occur at all times of the year. Occasional dust storms.

Airport map

Aerial View

SKYbrary Partners:

Safety knowledge contributed by: